Time;durP1;ratioP1;P1;durP2;ratioP2;P2;SDS_P1;SDS_P2;PMS_P1;PMS_P2;Temp;Humidity;BMP_temperature;BMP_pressure;BME280_temperature;BME280_humidity;BME280_pressure;Samples;Min_cycle;Max_cycle;Signal;HPM_P1;HPM_P2
2022/04/30 00:00:20;;;;;;;16.83;10.02;;;9.40;72.30;;;;;;5017997;28;20053;-75
2022/04/30 00:02:45;;;;;;;13.63;8.82;;;9.40;72.60;;;;;;5017498;28;20038;-76
2022/04/30 00:05:11;;;;;;;19.38;9.75;;;9.30;72.90;;;;;;5010108;28;20153;-76
2022/04/30 00:07:40;;;;;;;16.02;9.60;;;9.30;73.10;;;;;;5013895;28;20030;-76
2022/04/30 00:10:07;;;;;;;15.98;9.95;;;9.20;73.30;;;;;;5012576;28;20036;-76
2022/04/30 00:12:33;;;;;;;17.55;10.63;;;9.10;73.70;;;;;;5012772;28;20473;-76
2022/04/30 00:14:58;;;;;;;16.60;10.27;;;9.10;73.90;;;;;;5016987;28;20040;-76
2022/04/30 00:17:24;;;;;;;15.73;10.52;;;9.10;73.90;;;;;;5017197;28;20052;-77
2022/04/30 00:19:50;;;;;;;17.23;10.27;;;9.10;73.90;;;;;;5024252;28;20449;-76
2022/04/30 00:22:18;;;;;;;14.93;10.45;;;9.10;74.10;;;;;;5016895;28;20041;-77
2022/04/30 00:24:45;;;;;;;16.13;10.70;;;9.00;74.40;;;;;;5026804;28;20473;-76
2022/04/30 00:27:11;;;;;;;16.15;9.80;;;9.00;74.60;;;;;;5022144;28;20129;-76
2022/04/30 00:29:37;;;;;;;17.25;10.25;;;8.90;75.00;;;;;;5013091;28;20029;-77
2022/04/30 00:32:03;;;;;;;17.27;10.27;;;8.80;75.00;;;;;;5015545;28;20123;-76
2022/04/30 00:34:29;;;;;;;15.85;10.63;;;8.80;75.50;;;;;;5024229;28;20049;-76
2022/04/30 00:36:57;;;;;;;15.52;10.80;;;8.80;75.60;;;;;;5015963;28;20105;-76
2022/04/30 00:39:23;;;;;;;19.98;11.45;;;8.70;75.90;;;;;;5017951;28;20029;-75
2022/04/30 00:41:49;;;;;;;17.83;10.95;;;8.70;76.00;;;;;;5027087;28;20529;-77
2022/04/30 00:44:21;;;;;;;16.73;11.10;;;8.60;76.40;;;;;;5020345;28;20083;-76
2022/04/30 00:46:54;;;;;;;18.30;11.20;;;8.60;76.50;;;;;;5025945;28;20081;-76
2022/04/30 00:49:20;;;;;;;20.35;11.07;;;8.70;76.70;;;;;;5016875;28;20042;-76
2022/04/30 00:51:48;;;;;;;18.65;10.63;;;8.60;76.80;;;;;;5025376;28;20510;-76
2022/04/30 00:54:14;;;;;;;17.75;11.18;;;8.60;76.90;;;;;;5018070;28;20092;-76
2022/04/30 00:56:49;;;;;;;16.83;10.48;;;8.60;77.10;;;;;;5018509;28;20033;-76
2022/04/30 00:59:17;;;;;;;16.65;10.45;;;8.50;77.20;;;;;;5023073;28;20558;-76
2022/04/30 01:01:45;;;;;;;15.43;11.02;;;8.40;77.60;;;;;;5015895;28;20137;-76
2022/04/30 01:04:11;;;;;;;16.25;10.88;;;8.40;77.80;;;;;;5017816;28;20040;-76
2022/04/30 01:06:50;;;;;;;16.30;11.30;;;8.30;78.00;;;;;;5015839;28;20034;-76
2022/04/30 01:09:25;;;;;;;16.10;11.13;;;8.30;78.40;;;;;;5009101;28;20053;-76
2022/04/30 01:11:58;;;;;;;17.75;11.20;;;8.20;78.50;;;;;;5017553;28;20038;-75
2022/04/30 01:14:29;;;;;;;17.77;12.43;;;8.20;78.60;;;;;;5027603;28;20048;-76
2022/04/30 01:16:59;;;;;;;19.55;12.18;;;8.10;78.90;;;;;;5015276;28;20145;-75
2022/04/30 01:19:27;;;;;;;18.63;13.05;;;8.10;79.40;;;;;;5015469;28;20059;-76
2022/04/30 01:21:57;;;;;;;20.77;13.75;;;8.00;79.80;;;;;;5020806;28;20040;-76
2022/04/30 01:24:25;;;;;;;18.52;13.07;;;8.00;79.80;;;;;;5011492;28;20029;-76
2022/04/30 01:26:52;;;;;;;19.70;12.98;;;7.90;80.00;;;;;;5019198;28;20064;-76
2022/04/30 01:29:30;;;;;;;19.42;12.93;;;7.90;80.10;;;;;;5015157;28;20472;-76
2022/04/30 01:37:52;;;;;;;21.25;13.80;;;7.80;80.60;;;;;;5027413;28;20426;-76
2022/04/30 01:40:18;;;;;;;19.00;14.05;;;7.70;80.70;;;;;;5015399;28;20029;-76
2022/04/30 01:42:46;;;;;;;21.95;13.43;;;7.70;80.80;;;;;;5016488;28;20039;-76
2022/04/30 01:45:14;;;;;;;20.02;14.32;;;7.70;80.80;;;;;;5015430;28;20112;-76
2022/04/30 01:47:41;;;;;;;23.70;14.85;;;7.70;80.90;;;;;;5013832;28;20120;-76
2022/04/30 01:50:08;;;;;;;21.38;13.77;;;7.60;81.10;;;;;;5015683;28;20045;-76
2022/04/30 01:52:34;;;;;;;19.95;13.32;;;7.60;81.30;;;;;;5015535;28;20140;-76
2022/04/30 01:55:00;;;;;;;23.30;14.05;;;7.50;81.30;;;;;;5013015;28;20051;-76
2022/04/30 01:57:26;;;;;;;18.88;13.65;;;7.60;81.30;;;;;;5010253;28;20046;-76
2022/04/30 02:00:02;;;;;;;21.35;13.95;;;7.50;81.30;;;;;;5013322;28;20046;-77
2022/04/30 02:02:34;;;;;;;18.95;14.32;;;7.50;81.20;;;;;;5011440;28;20026;-77
2022/04/30 02:05:03;;;;;;;21.17;13.85;;;7.50;81.40;;;;;;5013916;28;20766;-76
2022/04/30 02:07:30;;;;;;;20.77;13.82;;;7.50;81.50;;;;;;5013779;28;20053;-77
2022/04/30 02:10:02;;;;;;;23.45;14.23;;;7.40;81.60;;;;;;5020237;28;20087;-76
2022/04/30 02:12:31;;;;;;;21.27;13.00;;;7.40;81.80;;;;;;5012176;28;20767;-77
2022/04/30 02:14:58;;;;;;;20.45;14.07;;;7.30;82.00;;;;;;5013349;28;20045;-76
2022/04/30 02:17:38;;;;;;;21.60;14.00;;;7.30;82.10;;;;;;5025659;28;20045;-76
2022/04/30 02:22:52;;;;;;;21.73;13.63;;;7.20;82.20;;;;;;5015447;28;20048;-76
2022/04/30 02:25:19;;;;;;;20.50;13.98;;;7.20;82.20;;;;;;5023227;28;20079;-77
2022/04/30 02:27:48;;;;;;;21.23;13.43;;;7.10;82.50;;;;;;5023366;28;20116;-76
2022/04/30 02:30:17;;;;;;;21.65;14.30;;;7.10;82.60;;;;;;5012713;28;20128;-77
2022/04/30 02:32:49;;;;;;;19.75;12.52;;;7.10;82.70;;;;;;5015259;28;20036;-76
2022/04/30 02:35:23;;;;;;;18.30;13.38;;;7.00;82.70;;;;;;5017117;28;20040;-78
2022/04/30 02:37:52;;;;;;;21.27;13.43;;;7.00;83.00;;;;;;5017548;28;20052;-76
2022/04/30 02:40:19;;;;;;;20.77;13.18;;;7.00;83.00;;;;;;5010136;28;20030;-77
2022/04/30 02:42:46;;;;;;;22.85;13.05;;;7.00;82.90;;;;;;5008353;28;20034;-76
2022/04/30 02:45:14;;;;;;;22.65;14.13;;;7.00;83.00;;;;;;5016698;28;20482;-77
2022/04/30 02:47:42;;;;;;;17.98;12.52;;;7.00;83.00;;;;;;5008152;28;20033;-76
2022/04/30 02:50:12;;;;;;;20.52;12.82;;;6.90;83.00;;;;;;5011810;28;20060;-76
2022/04/30 02:52:38;;;;;;;20.77;13.02;;;6.90;83.20;;;;;;5019642;28;20029;-76
2022/04/30 02:55:05;;;;;;;20.23;12.80;;;6.90;83.30;;;;;;5015601;28;20148;-76
2022/04/30 03:00:40;;;;;;;18.35;12.85;;;6.80;83.50;;;;;;5017578;28;20088;-76
2022/04/30 03:03:10;;;;;;;18.95;12.65;;;6.70;83.40;;;;;;5017168;28;20421;-76
2022/04/30 03:05:37;;;;;;;18.88;13.48;;;6.70;83.60;;;;;;5023361;28;20029;-76
2022/04/30 03:08:12;;;;;;;21.13;12.35;;;6.70;83.60;;;;;;5018092;28;20573;-76
2022/04/30 03:10:45;;;;;;;21.70;13.57;;;6.70;83.70;;;;;;5020146;28;20099;-76
2022/04/30 03:13:13;;;;;;;22.65;13.15;;;6.70;83.60;;;;;;5019239;28;20484;-76
2022/04/30 03:15:43;;;;;;;22.08;13.27;;;6.70;83.60;;;;;;5019121;28;20049;-76
2022/04/30 03:23:40;;;;;;;18.88;13.20;;;6.60;83.80;;;;;;5017975;28;20045;-76
2022/04/30 03:26:09;;;;;;;32.78;14.07;;;6.60;83.90;;;;;;5019644;28;20124;-76
2022/04/30 03:28:40;;;;;;;21.13;13.18;;;6.60;83.90;;;;;;5019759;28;20108;-76
2022/04/30 03:31:08;;;;;;;21.38;13.25;;;6.50;84.00;;;;;;5020570;28;20088;-76
2022/04/30 03:33:34;;;;;;;21.08;13.60;;;6.50;84.20;;;;;;5015654;28;20099;-76
2022/04/30 03:36:00;;;;;;;24.95;13.25;;;6.50;84.20;;;;;;5027261;28;20187;-76
2022/04/30 03:38:26;;;;;;;21.05;13.93;;;6.50;84.30;;;;;;5012696;28;20124;-76
2022/04/30 03:40:52;;;;;;;26.70;14.77;;;6.50;84.40;;;;;;5019357;28;20543;-77
2022/04/30 03:43:18;;;;;;;24.13;14.02;;;6.50;84.30;;;;;;5027003;28;20025;-74
2022/04/30 03:45:44;;;;;;;21.60;13.35;;;6.50;84.50;;;;;;5019712;28;20087;-75
2022/04/30 03:48:10;;;;;;;20.90;14.40;;;6.50;84.60;;;;;;5017525;28;20489;-75
2022/04/30 03:50:35;;;;;;;23.48;14.50;;;6.40;84.80;;;;;;5017550;28;20026;-75
2022/04/30 03:53:01;;;;;;;21.27;13.90;;;6.40;85.00;;;;;;5017597;28;20037;-75
2022/04/30 03:55:28;;;;;;;20.80;13.80;;;6.30;85.00;;;;;;5017062;28;20095;-76
2022/04/30 03:57:56;;;;;;;22.83;14.90;;;6.30;85.00;;;;;;5015281;28;20076;-75
2022/04/30 04:00:28;;;;;;;22.35;14.40;;;6.30;85.10;;;;;;5017174;28;20171;-76
2022/04/30 04:02:55;;;;;;;24.30;14.13;;;6.30;85.10;;;;;;5015107;28;20034;-76
2022/04/30 04:05:21;;;;;;;22.35;14.82;;;6.30;85.20;;;;;;5020501;28;20056;-76
2022/04/30 04:07:56;;;;;;;21.25;14.95;;;6.30;85.10;;;;;;5018978;28;20681;-76
2022/04/30 04:10:21;;;;;;;22.52;14.23;;;6.30;85.00;;;;;;5027979;28;20112;-76
2022/04/30 04:12:47;;;;;;;21.08;14.70;;;6.30;85.10;;;;;;5016944;28;20035;-76
2022/04/30 04:17:57;;;;;;;19.80;14.38;;;6.20;85.10;;;;;;5014532;28;20487;-76
2022/04/30 04:20:26;;;;;;;21.17;14.38;;;6.20;85.20;;;;;;5018505;28;20107;-75
2022/04/30 04:22:53;;;;;;;25.65;15.50;;;6.20;85.20;;;;;;5018535;28;20076;-75
2022/04/30 04:28:03;;;;;;;23.75;15.50;;;6.20;85.20;;;;;;5017785;28;20120;-76
2022/04/30 04:30:31;;;;;;;20.17;13.65;;;6.10;85.40;;;;;;5017976;28;20477;-76
2022/04/30 04:32:58;;;;;;;22.80;15.23;;;6.20;85.40;;;;;;5020047;28;20500;-77
2022/04/30 04:35:24;;;;;;;23.30;14.38;;;6.20;85.40;;;;;;5021882;28;20068;-76
2022/04/30 04:37:50;;;;;;;23.73;16.52;;;6.20;85.30;;;;;;5027251;28;20041;-76
2022/04/30 04:40:17;;;;;;;23.20;15.60;;;6.20;85.40;;;;;;5015278;28;20040;-76
2022/04/30 04:42:44;;;;;;;22.65;14.88;;;6.20;85.30;;;;;;5028910;28;20091;-76
2022/04/30 04:45:11;;;;;;;22.17;15.32;;;6.20;85.30;;;;;;5022591;28;20480;-76
2022/04/30 04:47:41;;;;;;;28.75;16.75;;;6.20;85.30;;;;;;5013393;28;20034;-76
2022/04/30 04:50:14;;;;;;;32.40;15.95;;;6.20;85.30;;;;;;5014480;28;20901;-76
2022/04/30 04:52:41;;;;;;;29.08;17.02;;;6.30;85.20;;;;;;5009980;28;20267;-75
2022/04/30 04:55:07;;;;;;;26.75;16.45;;;6.30;85.20;;;;;;5021297;28;20532;-76
2022/04/30 04:57:33;;;;;;;27.48;16.42;;;6.30;85.40;;;;;;5021875;28;20033;-75
2022/04/30 04:59:59;;;;;;;24.35;15.45;;;6.30;85.40;;;;;;5022151;28;20951;-75
2022/04/30 05:02:25;;;;;;;23.55;15.85;;;6.40;85.40;;;;;;5013060;28;20078;-75
2022/04/30 05:04:51;;;;;;;22.50;15.75;;;6.40;85.30;;;;;;5022604;28;20082;-75
2022/04/30 05:07:17;;;;;;;28.05;16.80;;;6.40;85.20;;;;;;5014186;28;20495;-76
2022/04/30 05:09:43;;;;;;;26.02;15.82;;;6.50;85.10;;;;;;5018615;28;20025;-76
2022/04/30 05:12:12;;;;;;;26.45;16.77;;;6.50;85.10;;;;;;5018314;28;20029;-76
2022/04/30 05:14:38;;;;;;;25.05;15.73;;;6.60;85.00;;;;;;5024197;28;20028;-76
2022/04/30 05:17:05;;;;;;;24.42;15.57;;;6.60;85.10;;;;;;5015138;28;20072;-76
2022/04/30 05:19:31;;;;;;;24.83;16.73;;;6.60;84.90;;;;;;5024926;28;20103;-77
2022/04/30 05:21:57;;;;;;;24.33;15.68;;;6.70;84.70;;;;;;5017278;28;20416;-74
2022/04/30 05:24:22;;;;;;;24.42;15.93;;;6.80;84.80;;;;;;5017148;28;20037;-76
2022/04/30 05:26:48;;;;;;;25.38;16.25;;;6.70;84.70;;;;;;5007723;28;20204;-77
2022/04/30 05:29:14;;;;;;;25.50;16.98;;;6.80;84.80;;;;;;5006772;28;20120;-76
2022/04/30 05:31:40;;;;;;;24.33;16.42;;;6.90;84.80;;;;;;5018052;28;20596;-74
2022/04/30 05:34:06;;;;;;;22.92;15.93;;;6.90;84.60;;;;;;5005777;28;20036;-75
2022/04/30 05:36:31;;;;;;;24.60;16.80;;;7.00;84.70;;;;;;5014604;28;20520;-75
2022/04/30 05:38:59;;;;;;;25.83;17.02;;;7.00;84.70;;;;;;5015321;28;20054;-75
2022/04/30 05:41:25;;;;;;;25.38;16.48;;;7.10;84.30;;;;;;5022477;28;20080;-75
2022/04/30 05:43:50;;;;;;;25.58;16.83;;;7.10;84.50;;;;;;5002116;28;20102;-75
2022/04/30 05:46:16;;;;;;;26.30;16.95;;;7.10;84.30;;;;;;4999723;28;20030;-76
2022/04/30 05:48:41;;;;;;;26.33;17.63;;;7.20;84.40;;;;;;5024308;28;20059;-75
2022/04/30 05:51:07;;;;;;;27.05;17.67;;;7.30;84.10;;;;;;5010500;28;20116;-75
2022/04/30 05:53:33;;;;;;;26.42;16.33;;;7.40;84.20;;;;;;5019568;28;20550;-76
2022/04/30 05:55:58;;;;;;;26.15;17.25;;;7.40;83.90;;;;;;5008451;28;20042;-74
2022/04/30 05:58:24;;;;;;;25.02;15.77;;;7.50;83.80;;;;;;5011848;28;20367;-76
2022/04/30 06:00:50;;;;;;;23.30;16.27;;;7.60;83.50;;;;;;5001486;28;20534;-76
2022/04/30 06:03:15;;;;;;;24.63;15.57;;;7.70;82.90;;;;;;5009606;28;20034;-77
2022/04/30 06:05:41;;;;;;;22.13;16.15;;;7.80;82.70;;;;;;5020565;28;20041;-75
2022/04/30 06:08:08;;;;;;;26.77;17.42;;;7.90;82.70;;;;;;5021435;28;20542;-75
2022/04/30 06:10:34;;;;;;;25.25;16.33;;;8.10;82.30;;;;;;5009351;28;20030;-76
2022/04/30 06:12:59;;;;;;;25.85;15.68;;;8.30;81.70;;;;;;5011731;28;20381;-75
2022/04/30 06:15:25;;;;;;;21.75;14.90;;;8.50;81.20;;;;;;5018442;28;20041;-77
2022/04/30 06:17:51;;;;;;;23.23;15.52;;;8.60;80.30;;;;;;5015334;28;20494;-76
2022/04/30 06:20:17;;;;;;;19.50;13.95;;;8.80;79.90;;;;;;5014703;28;20592;-76
2022/04/30 06:22:43;;;;;;;21.88;14.38;;;8.90;79.00;;;;;;5019821;28;20869;-76
2022/04/30 06:25:10;;;;;;;21.40;14.52;;;9.00;79.10;;;;;;5020399;28;20037;-75
2022/04/30 06:27:35;;;;;;;20.60;14.07;;;9.20;78.60;;;;;;5015297;28;20121;-76
2022/04/30 06:30:01;;;;;;;21.83;14.15;;;9.20;78.20;;;;;;5014206;28;20029;-76
2022/04/30 06:32:27;;;;;;;21.50;13.80;;;9.30;77.50;;;;;;5023911;28;20447;-78
2022/04/30 06:34:52;;;;;;;20.35;14.52;;;9.50;77.50;;;;;;5015446;28;20523;-75
2022/04/30 06:37:18;;;;;;;21.02;14.48;;;9.60;76.90;;;;;;5022466;28;20248;-77
2022/04/30 06:39:44;;;;;;;19.60;13.88;;;9.50;77.50;;;;;;5016806;28;20053;-75
2022/04/30 06:42:10;;;;;;;23.02;15.30;;;9.50;76.80;;;;;;5016036;28;20056;-76
2022/04/30 06:44:36;;;;;;;23.00;13.50;;;9.50;76.90;;;;;;5016305;28;20025;-75
2022/04/30 06:47:02;;;;;;;26.45;13.77;;;9.70;76.50;;;;;;5033088;28;20125;-75
2022/04/30 06:49:27;;;;;;;20.10;13.90;;;9.80;75.40;;;;;;5020148;28;20025;-75
2022/04/30 06:51:53;;;;;;;17.17;12.43;;;9.90;75.00;;;;;;5014292;28;20033;-75
2022/04/30 06:57:16;;;;;;;20.02;12.38;;;9.90;75.40;;;;;;5011033;28;20499;-77
2022/04/30 06:59:44;;;;;;;17.30;12.27;;;9.90;73.80;;;;;;5010382;28;20122;-76
2022/04/30 07:02:18;;;;;;;21.35;12.57;;;10.10;72.90;;;;;;5012774;28;20100;-78
2022/04/30 07:04:46;;;;;;;17.70;12.98;;;10.40;72.60;;;;;;5013066;28;20064;-76
2022/04/30 07:07:13;;;;;;;16.48;11.30;;;10.50;72.10;;;;;;5009061;28;20053;-76
2022/04/30 07:09:39;;;;;;;16.75;11.35;;;10.30;71.00;;;;;;5004652;28;20597;-76
2022/04/30 07:12:07;;;;;;;18.98;12.25;;;10.50;70.40;;;;;;5007312;28;20042;-76
2022/04/30 07:14:35;;;;;;;15.48;11.65;;;10.60;70.00;;;;;;5004900;28;20065;-77
2022/04/30 07:17:06;;;;;;;18.42;12.02;;;10.70;70.60;;;;;;5003662;28;20042;-76
2022/04/30 07:19:32;;;;;;;17.55;12.55;;;10.90;68.80;;;;;;5002552;28;20041;-75
2022/04/30 07:21:58;;;;;;;17.77;11.63;;;11.00;70.10;;;;;;5007332;28;20652;-77
2022/04/30 07:24:24;;;;;;;14.60;11.20;;;11.40;69.70;;;;;;5004014;28;20080;-76
2022/04/30 07:26:50;;;;;;;15.52;10.73;;;11.50;66.50;;;;;;5010101;28;20905;-77
2022/04/30 07:29:15;;;;;;;14.30;10.85;;;11.40;66.10;;;;;;5007169;28;20053;-75
2022/04/30 07:31:41;;;;;;;17.13;11.40;;;11.30;67.00;;;;;;5007545;28;20487;-76
2022/04/30 07:34:09;;;;;;;15.50;11.38;;;11.10;66.90;;;;;;5023438;28;20095;-75
2022/04/30 07:36:35;;;;;;;17.25;11.48;;;10.70;67.90;;;;;;5006061;28;20033;-78
2022/04/30 07:39:01;;;;;;;18.33;11.77;;;10.60;69.30;;;;;;5012734;28;20072;-75
2022/04/30 07:41:26;;;;;;;19.38;12.90;;;10.60;69.70;;;;;;5012958;28;20576;-74
2022/04/30 07:43:52;;;;;;;19.10;12.43;;;10.40;70.20;;;;;;5006335;28;20604;-75
2022/04/30 07:46:18;;;;;;;17.98;12.60;;;10.30;70.60;;;;;;5007577;28;20034;-75
2022/04/30 07:48:44;;;;;;;17.17;13.05;;;10.30;70.80;;;;;;5004624;28;20048;-76
2022/04/30 07:51:29;;;;;;;17.20;11.88;;;10.20;71.40;;;;;;5006058;28;20228;-74
2022/04/30 07:53:54;;;;;;;17.55;12.50;;;10.20;71.60;;;;;;5002257;28;20713;-77
2022/04/30 07:56:20;;;;;;;16.02;12.55;;;10.10;72.20;;;;;;5007816;28;20040;-76
2022/04/30 07:58:45;;;;;;;17.63;12.32;;;10.10;72.10;;;;;;5009935;28;20034;-77
2022/04/30 08:01:11;;;;;;;18.38;13.20;;;10.20;71.40;;;;;;5009261;28;20086;-75
2022/04/30 08:03:40;;;;;;;18.50;13.55;;;10.20;71.50;;;;;;5009393;28;20060;-73
2022/04/30 08:06:05;;;;;;;17.55;13.35;;;10.10;71.60;;;;;;5014387;28;20038;-73
2022/04/30 08:08:31;;;;;;;18.42;13.10;;;10.10;71.70;;;;;;5011304;28;20033;-73
2022/04/30 08:10:57;;;;;;;18.58;12.73;;;10.20;71.20;;;;;;5021654;28;20202;-74
2022/04/30 08:13:22;;;;;;;17.95;13.48;;;10.20;71.50;;;;;;5019276;28;20037;-74
2022/04/30 08:15:48;;;;;;;14.90;11.80;;;10.30;71.30;;;;;;5018191;28;20025;-73
2022/04/30 08:18:14;;;;;;;16.90;13.65;;;10.30;70.70;;;;;;5018337;28;20042;-73
2022/04/30 08:20:40;;;;;;;20.00;14.02;;;10.50;70.90;;;;;;5021608;28;20048;-73
2022/04/30 08:23:07;;;;;;;17.98;13.73;;;10.60;71.00;;;;;;5016969;28;20044;-73
2022/04/30 08:25:34;;;;;;;22.38;14.32;;;10.70;71.20;;;;;;5024017;28;20439;-75
2022/04/30 08:28:01;;;;;;;18.27;13.07;;;10.90;71.00;;;;;;5016378;28;20026;-73
2022/04/30 08:30:26;;;;;;;16.02;12.80;;;10.80;70.40;;;;;;5017620;28;20071;-74
2022/04/30 08:32:52;;;;;;;18.45;13.98;;;11.00;69.70;;;;;;5007397;28;20037;-72
2022/04/30 08:35:18;;;;;;;17.00;13.32;;;11.10;68.80;;;;;;5015802;28;20033;-74
2022/04/30 08:37:43;;;;;;;20.00;12.95;;;11.30;68.00;;;;;;5023302;28;20094;-73
2022/04/30 08:40:09;;;;;;;18.23;12.48;;;11.50;68.10;;;;;;5016194;28;20417;-72
2022/04/30 08:42:35;;;;;;;24.05;14.68;;;11.20;67.90;;;;;;5023476;28;20545;-75
2022/04/30 08:45:08;;;;;;;16.58;13.45;;;11.10;68.10;;;;;;5022941;28;20029;-72
2022/04/30 08:47:40;;;;;;;18.95;14.65;;;11.20;67.90;;;;;;5007935;28;20088;-73
2022/04/30 08:50:13;;;;;;;17.08;12.93;;;11.10;68.70;;;;;;5016815;28;20029;-74
2022/04/30 08:52:38;;;;;;;16.92;13.73;;;11.10;68.70;;;;;;5015847;28;20399;-74
2022/04/30 08:55:06;;;;;;;16.98;13.93;;;11.00;68.80;;;;;;5015823;28;20029;-73
2022/04/30 08:57:33;;;;;;;18.65;14.55;;;10.80;69.90;;;;;;5016008;28;20136;-75
2022/04/30 08:59:59;;;;;;;16.02;13.40;;;10.90;70.20;;;;;;5016231;28;20043;-73
2022/04/30 09:02:25;;;;;;;16.70;14.18;;;10.80;70.30;;;;;;5013202;28;20083;-74
2022/04/30 09:04:51;;;;;;;18.83;14.55;;;10.70;70.20;;;;;;5017302;28;20572;-76
2022/04/30 09:07:21;;;;;;;16.17;12.82;;;10.70;70.00;;;;;;5016346;28;20026;-74
2022/04/30 09:09:57;;;;;;;18.10;14.30;;;10.80;70.20;;;;;;5015124;28;20369;-74
2022/04/30 09:12:24;;;;;;;17.73;13.38;;;10.90;70.40;;;;;;5021010;28;20393;-73
2022/04/30 09:14:49;;;;;;;17.77;13.85;;;10.80;70.20;;;;;;5016216;28;20061;-74
2022/04/30 09:17:16;;;;;;;18.88;15.07;;;10.70;69.80;;;;;;5016917;28;20426;-73
2022/04/30 09:19:52;;;;;;;18.92;14.25;;;10.90;70.10;;;;;;5013182;28;20037;-73
2022/04/30 09:22:31;;;;;;;19.15;13.82;;;11.10;69.60;;;;;;5016524;28;20037;-74
2022/04/30 09:24:59;;;;;;;17.67;14.60;;;11.00;68.70;;;;;;5019623;28;20030;-73
2022/04/30 09:27:25;;;;;;;18.25;14.02;;;10.90;68.90;;;;;;5018184;28;20029;-74
2022/04/30 09:29:52;;;;;;;17.52;13.63;;;10.90;68.90;;;;;;5020638;28;20048;-73
2022/04/30 09:32:30;;;;;;;19.27;13.57;;;10.90;68.40;;;;;;5019543;28;20040;-74
2022/04/30 09:37:41;;;;;;;21.65;14.48;;;10.90;68.70;;;;;;5016493;28;20045;-74
2022/04/30 09:40:13;;;;;;;16.17;12.68;;;11.10;69.10;;;;;;5021478;28;20287;-72
2022/04/30 09:42:39;;;;;;;25.00;13.88;;;11.20;68.40;;;;;;5018649;28;20099;-72
2022/04/30 09:45:06;;;;;;;17.20;12.30;;;11.60;68.40;;;;;;5025380;28;20465;-74
2022/04/30 09:47:35;;;;;;;15.90;12.20;;;11.90;66.30;;;;;;5013235;28;20455;-73
2022/04/30 09:55:34;;;;;;;13.80;10.85;;;12.70;65.10;;;;;;5015511;28;20032;-74
2022/04/30 09:58:04;;;;;;;16.10;10.70;;;13.50;63.10;;;;;;5011010;28;20452;-73
2022/04/30 10:00:34;;;;;;;16.27;9.23;;;13.60;59.10;;;;;;4999485;28;20037;-74
2022/04/30 10:03:03;;;;;;;13.77;9.52;;;13.50;59.90;;;;;;5013600;28;20029;-74
2022/04/30 10:05:35;;;;;;;14.75;9.90;;;13.50;59.80;;;;;;5014590;28;20652;-75
2022/04/30 10:08:02;;;;;;;14.25;8.73;;;13.60;60.30;;;;;;5004574;28;20040;-73
2022/04/30 10:10:51;;;;;;;12.50;9.25;;;13.20;58.90;;;;;;5014592;28;20042;-75
2022/04/30 10:13:31;;;;;;;12.80;9.18;;;13.00;59.50;;;;;;4996754;28;20079;-74
2022/04/30 10:15:59;;;;;;;14.05;9.15;;;12.70;60.50;;;;;;5002637;28;20041;-74
2022/04/30 10:18:43;;;;;;;17.65;8.98;;;12.60;60.80;;;;;;4998910;28;20041;-74
2022/04/30 10:21:19;;;;;;;11.35;8.02;;;12.90;60.70;;;;;;5001015;28;20030;-76
2022/04/30 10:23:45;;;;;;;12.77;8.55;;;12.70;60.30;;;;;;5009182;28;20042;-74
2022/04/30 10:26:11;;;;;;;9.75;7.68;;;13.00;60.90;;;;;;4995238;28;20030;-75
2022/04/30 10:28:36;;;;;;;10.88;8.38;;;13.60;58.90;;;;;;5002834;28;20038;-72
2022/04/30 10:31:06;;;;;;;11.88;8.30;;;13.70;57.70;;;;;;4996785;28;20468;-72
2022/04/30 10:33:33;;;;;;;15.75;9.93;;;13.70;58.40;;;;;;5006668;28;20132;-74
2022/04/30 10:36:21;;;;;;;15.40;8.30;;;13.60;58.30;;;;;;5005829;28;20357;-75
2022/04/30 10:38:59;;;;;;;13.02;8.43;;;13.30;58.40;;;;;;5003009;28;20250;-76
2022/04/30 10:41:25;;;;;;;12.02;7.78;;;13.50;57.70;;;;;;4999737;28;20077;-76
2022/04/30 10:43:59;;;;;;;12.30;8.23;;;13.20;59.00;;;;;;5000787;28;20041;-72
2022/04/30 10:46:26;;;;;;;12.75;7.43;;;13.20;60.40;;;;;;5014136;28;20548;-72
2022/04/30 10:48:51;;;;;;;10.20;7.90;;;13.70;58.20;;;;;;5013656;28;20267;-74
2022/04/30 10:51:44;;;;;;;12.10;7.63;;;13.90;58.00;;;;;;5015249;28;20129;-74
2022/04/30 10:54:13;;;;;;;13.43;7.15;;;14.10;56.80;;;;;;4995333;28;20025;-74
2022/04/30 10:56:39;;;;;;;13.38;7.13;;;14.40;54.30;;;;;;5005238;28;20630;-74
2022/04/30 10:59:06;;;;;;;9.93;7.45;;;14.10;54.30;;;;;;5005212;28;20037;-73
2022/04/30 11:01:32;;;;;;;13.82;7.40;;;14.00;55.60;;;;;;5003653;28;20308;-74
2022/04/30 11:04:00;;;;;;;11.77;7.53;;;13.90;55.60;;;;;;5002710;28;20057;-74
2022/04/30 11:06:31;;;;;;;10.07;7.50;;;14.00;56.20;;;;;;4994117;28;20144;-75
2022/04/30 11:09:05;;;;;;;11.50;8.20;;;14.10;55.80;;;;;;5022653;28;20038;-73
2022/04/30 11:11:32;;;;;;;12.32;7.60;;;14.20;55.10;;;;;;5003549;28;20255;-74
2022/04/30 11:14:03;;;;;;;11.32;7.80;;;14.30;55.40;;;;;;5004150;28;20036;-74
2022/04/30 11:16:37;;;;;;;11.30;7.50;;;14.30;55.60;;;;;;5006800;28;20513;-72
2022/04/30 11:19:10;;;;;;;13.93;7.10;;;14.50;54.00;;;;;;5000748;28;20081;-73
2022/04/30 11:21:41;;;;;;;10.48;6.85;;;14.70;55.00;;;;;;5012741;28;20026;-73
2022/04/30 11:24:08;;;;;;;14.13;7.57;;;15.10;53.10;;;;;;5003202;28;20642;-74
2022/04/30 11:26:42;;;;;;;12.32;7.57;;;15.10;53.90;;;;;;5002670;28;20286;-75
2022/04/30 11:29:13;;;;;;;9.67;6.97;;;15.20;53.30;;;;;;5003569;28;20029;-75
2022/04/30 11:31:42;;;;;;;9.82;6.85;;;14.80;51.90;;;;;;5009245;28;20302;-74
2022/04/30 11:34:11;;;;;;;12.02;7.85;;;14.60;52.00;;;;;;4997025;28;20048;-75
2022/04/30 11:36:39;;;;;;;11.98;7.40;;;14.20;53.60;;;;;;5013185;28;20116;-77
2022/04/30 11:39:04;;;;;;;11.10;7.53;;;14.20;54.70;;;;;;5020206;28;20614;-73
2022/04/30 11:41:41;;;;;;;10.32;6.13;;;14.40;54.20;;;;;;5008479;28;20346;-74
2022/04/30 11:44:12;;;;;;;11.48;7.00;;;14.70;53.60;;;;;;5005854;28;20649;-73
2022/04/30 11:46:40;;;;;;;8.77;6.18;;;15.30;52.70;;;;;;4999757;28;20107;-75
2022/04/30 11:49:10;;;;;;;8.95;6.50;;;15.60;50.50;;;;;;5004782;28;20042;-74
2022/04/30 11:51:36;;;;;;;8.93;6.03;;;15.70;49.00;;;;;;5013510;28;20152;-77
2022/04/30 11:54:03;;;;;;;10.65;6.82;;;15.90;48.00;;;;;;5004220;28;20026;-74
2022/04/30 11:56:30;;;;;;;11.50;6.82;;;16.00;48.40;;;;;;4993745;28;20461;-75
2022/04/30 11:58:56;;;;;;;11.93;6.95;;;15.70;48.00;;;;;;5014788;28;20041;-74
2022/04/30 12:01:26;;;;;;;10.40;7.15;;;15.20;50.30;;;;;;4998401;28;20037;-73
2022/04/30 12:04:04;;;;;;;10.18;6.80;;;14.80;50.90;;;;;;4999393;28;20038;-76
2022/04/30 12:06:31;;;;;;;11.65;6.63;;;14.40;52.90;;;;;;5008161;28;20036;-76
2022/04/30 12:08:58;;;;;;;9.45;6.20;;;14.60;51.30;;;;;;5002699;28;20116;-75
2022/04/30 12:11:24;;;;;;;12.05;6.43;;;15.00;50.00;;;;;;5003201;28;20072;-74
2022/04/30 12:14:04;;;;;;;9.00;6.28;;;15.10;49.90;;;;;;4992030;28;20551;-74
2022/04/30 12:16:36;;;;;;;14.05;7.13;;;14.80;51.00;;;;;;4997607;28;20030;-74
2022/04/30 12:24:46;;;;;;;7.57;5.03;;;14.60;52.70;;;;;;5017243;28;20736;-75
2022/04/30 12:27:23;;;;;;;13.27;6.72;;;14.90;50.20;;;;;;5016567;28;20100;-77
2022/04/30 12:30:06;;;;;;;12.02;6.65;;;15.10;51.20;;;;;;5012716;28;20045;-74
2022/04/30 12:32:35;;;;;;;11.02;6.60;;;15.50;51.50;;;;;;5003373;28;20084;-74
2022/04/30 12:35:01;;;;;;;9.68;5.03;;;15.70;50.70;;;;;;5025383;28;20491;-73
2022/04/30 12:37:33;;;;;;;12.27;5.95;;;15.60;49.60;;;;;;5023871;28;20045;-75
2022/04/30 12:40:00;;;;;;;10.63;6.20;;;15.00;50.70;;;;;;5018333;28;20045;-76
2022/04/30 12:42:26;;;;;;;9.65;5.72;;;14.70;51.60;;;;;;5027362;28;20071;-75
2022/04/30 12:44:52;;;;;;;11.75;6.65;;;14.30;54.00;;;;;;5019469;28;20065;-73
2022/04/30 12:47:18;;;;;;;9.57;5.57;;;14.50;53.80;;;;;;5022603;28;20033;-74
2022/04/30 12:49:43;;;;;;;9.45;5.00;;;14.40;52.40;;;;;;5019485;28;20046;-73
2022/04/30 12:52:09;;;;;;;7.25;5.15;;;14.80;51.40;;;;;;5009163;28;20037;-76
2022/04/30 12:54:35;;;;;;;7.95;5.03;;;15.20;49.20;;;;;;5002520;28;20038;-76
2022/04/30 12:57:07;;;;;;;9.55;5.70;;;15.20;49.40;;;;;;5007200;28;20037;-75
2022/04/30 12:59:37;;;;;;;9.13;5.43;;;15.00;50.40;;;;;;4997755;28;20038;-75
2022/04/30 13:02:07;;;;;;;9.25;6.05;;;14.50;50.80;;;;;;5001429;28;20120;-74
2022/04/30 13:04:33;;;;;;;9.50;6.03;;;14.60;52.10;;;;;;5006476;28;20030;-76
2022/04/30 13:06:59;;;;;;;10.25;5.20;;;14.70;52.00;;;;;;5023612;28;20040;-76
2022/04/30 13:14:53;;;;;;;10.27;5.40;;;14.60;49.00;;;;;;5015242;28;20048;-75
2022/04/30 13:17:19;;;;;;;11.90;5.55;;;14.90;50.80;;;;;;5015213;28;20844;-76
2022/04/30 13:19:45;;;;;;;9.13;4.45;;;15.10;48.70;;;;;;5013326;28;20128;-72
2022/04/30 13:22:10;;;;;;;10.23;4.55;;;15.20;48.90;;;;;;5015675;28;20029;-76
2022/04/30 13:24:36;;;;;;;10.10;5.45;;;15.20;47.50;;;;;;5003903;28;20038;-75